createdAt,value
2023-01-19T00:01:28.566Z,13.85
2023-01-19T00:03:56.185Z,14.68
2023-01-19T00:06:23.950Z,14.85
2023-01-19T00:08:51.615Z,15.57
2023-01-19T00:11:19.756Z,16.20
2023-01-19T00:13:50.681Z,16.52
2023-01-19T00:16:19.547Z,14.48
2023-01-19T00:18:47.779Z,16.95
2023-01-19T00:21:15.975Z,16.48
2023-01-19T00:23:47.367Z,16.73
2023-01-19T00:26:16.646Z,15.40
2023-01-19T00:28:44.895Z,15.13
2023-01-19T00:31:12.997Z,15.60
2023-01-19T00:33:41.447Z,14.20
2023-01-19T00:36:10.076Z,13.85
2023-01-19T00:38:39.072Z,15.40
2023-01-19T00:41:06.712Z,14.48
2023-01-19T00:43:34.246Z,13.38
2023-01-19T00:46:01.891Z,13.85
2023-01-19T00:48:30.756Z,14.05
2023-01-19T00:50:58.135Z,11.25
2023-01-19T00:53:26.362Z,13.75
2023-01-19T00:55:55.109Z,12.68
2023-01-19T00:58:22.896Z,12.68
2023-01-19T01:00:52.971Z,13.52
2023-01-19T01:03:20.713Z,14.00
2023-01-19T01:05:49.189Z,13.77
2023-01-19T01:08:16.702Z,12.52
2023-01-19T01:10:44.495Z,12.55
2023-01-19T01:13:22.355Z,12.43
2023-01-19T01:15:55.829Z,13.38
2023-01-19T01:18:24.310Z,12.18
2023-01-19T01:20:52.184Z,13.40
2023-01-19T01:23:22.895Z,12.38
2023-01-19T01:25:50.826Z,12.57
2023-01-19T01:28:18.599Z,12.80
2023-01-19T01:30:46.342Z,11.32
2023-01-19T01:33:14.173Z,11.70
2023-01-19T01:35:42.187Z,15.20
2023-01-19T01:38:09.804Z,12.27
2023-01-19T01:40:40.663Z,11.02
2023-01-19T01:43:17.526Z,14.98
2023-01-19T01:45:45.503Z,14.00
2023-01-19T01:48:27.077Z,13.88
2023-01-19T01:51:15.826Z,11.32
2023-01-19T01:53:47.361Z,13.55
2023-01-19T01:56:19.863Z,11.75
2023-01-19T01:58:48.734Z,12.38
2023-01-19T02:01:35.518Z,12.98
2023-01-19T02:04:03.151Z,10.98
2023-01-19T02:06:30.801Z,11.10
2023-01-19T02:09:25.109Z,12.30
2023-01-19T02:12:12.250Z,11.88
2023-01-19T02:14:39.760Z,12.57
2023-01-19T02:17:07.685Z,11.57
2023-01-19T02:19:43.781Z,11.98
2023-01-19T02:22:21.323Z,13.50
2023-01-19T02:24:50.070Z,14.38
2023-01-19T02:27:18.127Z,11.85
2023-01-19T02:29:46.004Z,12.70
2023-01-19T02:32:14.576Z,11.15
2023-01-19T02:34:42.230Z,11.93
2023-01-19T02:37:15.055Z,11.45
2023-01-19T02:39:47.486Z,11.38
2023-01-19T02:42:21.538Z,13.07
2023-01-19T02:44:52.689Z,13.80
2023-01-19T02:47:20.444Z,11.80
2023-01-19T02:49:58.656Z,13.73
2023-01-19T02:52:27.710Z,11.07
2023-01-19T02:55:10.256Z,11.55
2023-01-19T02:58:15.643Z,13.68
2023-01-19T03:00:48.647Z,11.40
2023-01-19T03:03:30.893Z,14.77
2023-01-19T03:06:22.203Z,12.63
2023-01-19T03:08:52.740Z,14.52
2023-01-19T03:11:20.740Z,12.80
2023-01-19T03:13:53.617Z,11.48
2023-01-19T03:16:24.057Z,12.70
2023-01-19T03:18:58.357Z,13.93
2023-01-19T03:21:28.127Z,14.27
2023-01-19T03:24:02.882Z,13.85
2023-01-19T03:26:34.474Z,12.77
2023-01-19T03:29:03.901Z,11.32
2023-01-19T03:31:33.360Z,12.30
2023-01-19T03:34:06.685Z,14.57
2023-01-19T03:36:48.203Z,12.95
2023-01-19T03:39:21.903Z,13.98
2023-01-19T03:41:57.416Z,15.10
2023-01-19T03:44:27.624Z,12.10
2023-01-19T03:46:58.522Z,15.52
2023-01-19T03:49:26.695Z,13.77
2023-01-19T03:51:58.933Z,14.23
2023-01-19T03:54:27.079Z,14.40
2023-01-19T03:56:54.587Z,13.45
2023-01-19T03:59:22.162Z,12.95
2023-01-19T04:01:49.902Z,13.02
2023-01-19T04:04:17.495Z,13.43
2023-01-19T04:06:45.230Z,12.23
2023-01-19T04:09:12.813Z,12.27
2023-01-19T04:11:40.517Z,13.10
2023-01-19T04:14:07.914Z,12.60
2023-01-19T04:16:35.634Z,12.57
2023-01-19T04:19:03.139Z,11.23
2023-01-19T04:21:30.485Z,13.77
2023-01-19T04:23:59.096Z,10.88
2023-01-19T04:26:26.640Z,10.15
2023-01-19T04:28:54.340Z,9.55
2023-01-19T04:31:23.487Z,11.48
2023-01-19T04:33:51.560Z,10.30
2023-01-19T04:36:19.315Z,9.45
2023-01-19T04:38:48.809Z,11.18
2023-01-19T04:41:16.738Z,11.45
2023-01-19T04:43:44.657Z,8.77
2023-01-19T04:46:12.397Z,11.10
2023-01-19T04:48:41.321Z,10.52
2023-01-19T04:51:09.979Z,10.10
2023-01-19T04:53:37.956Z,11.65
2023-01-19T04:56:05.839Z,11.50
2023-01-19T04:58:33.538Z,12.90
2023-01-19T05:01:01.246Z,11.63
2023-01-19T05:03:29.105Z,10.05
2023-01-19T05:05:56.813Z,10.90
2023-01-19T05:08:24.802Z,11.30
2023-01-19T05:10:52.552Z,12.98
2023-01-19T05:13:20.320Z,13.23
2023-01-19T05:15:48.167Z,13.23
2023-01-19T05:18:15.948Z,13.98
2023-01-19T05:20:43.821Z,14.93
2023-01-19T05:23:11.692Z,13.52
2023-01-19T05:25:39.459Z,13.50
2023-01-19T05:28:07.051Z,10.10
2023-01-19T05:30:34.617Z,8.77
2023-01-19T05:33:02.518Z,11.18
2023-01-19T05:35:36.311Z,12.30
2023-01-19T05:38:04.219Z,12.95
2023-01-19T05:40:32.016Z,14.18
2023-01-19T05:43:01.352Z,10.80
2023-01-19T05:45:29.479Z,12.82
2023-01-19T05:47:57.227Z,12.32
2023-01-19T05:50:25.563Z,14.43
2023-01-19T05:52:53.601Z,13.18
2023-01-19T05:55:21.853Z,12.70
2023-01-19T05:57:50.258Z,14.15
2023-01-19T06:00:18.269Z,12.20
2023-01-19T06:02:48.486Z,11.55
2023-01-19T06:05:17.094Z,12.93
2023-01-19T06:07:45.040Z,10.68
2023-01-19T06:10:12.859Z,10.40
2023-01-19T06:12:41.652Z,10.80
2023-01-19T06:15:09.577Z,11.32
2023-01-19T06:17:37.501Z,11.20
2023-01-19T06:20:05.608Z,11.32
2023-01-19T06:22:33.506Z,11.15
2023-01-19T06:25:01.417Z,11.45
2023-01-19T06:27:29.185Z,13.13
2023-01-19T06:29:57.037Z,10.85
2023-01-19T06:32:25.008Z,12.93
2023-01-19T06:34:54.009Z,12.63
2023-01-19T06:37:21.967Z,11.82
2023-01-19T06:39:49.869Z,13.23
2023-01-19T06:42:17.662Z,10.85
2023-01-19T06:44:47.844Z,13.88
2023-01-19T06:47:16.485Z,11.40
2023-01-19T06:49:44.545Z,11.90
2023-01-19T06:52:16.118Z,11.57
2023-01-19T06:54:45.407Z,12.40
2023-01-19T06:57:14.682Z,11.73
2023-01-19T06:59:42.381Z,9.82
2023-01-19T07:02:27.891Z,9.63
2023-01-19T07:04:56.794Z,10.57
2023-01-19T07:07:24.819Z,10.98
2023-01-19T07:09:54.064Z,11.30
2023-01-19T07:12:22.836Z,11.35
2023-01-19T07:14:50.644Z,11.00
2023-01-19T07:17:19.295Z,10.35
2023-01-19T07:19:47.024Z,10.07
2023-01-19T07:22:14.999Z,9.73
2023-01-19T07:24:43.226Z,10.05
2023-01-19T07:27:11.743Z,7.35
2023-01-19T07:29:40.069Z,7.95
2023-01-19T07:32:07.960Z,9.15
2023-01-19T07:34:36.675Z,9.93
2023-01-19T07:37:04.615Z,8.40
2023-01-19T07:39:32.512Z,11.27
2023-01-19T07:42:00.248Z,9.07
2023-01-19T07:44:28.288Z,8.45
2023-01-19T07:46:56.478Z,8.10
2023-01-19T07:49:24.951Z,7.40
2023-01-19T07:51:52.576Z,6.40
2023-01-19T07:54:20.919Z,6.78
2023-01-19T07:56:48.663Z,7.00
